sensor_id;sensor_type;location;lat;lon;timestamp;P1;durP1;ratioP1;P2;durP2;ratioP2
17207;SDS011;8720;48.488;9.202;2023-04-15T00:00:54;4.13;;;2.70;;
17207;SDS011;8720;48.488;9.202;2023-04-15T00:03:21;4.77;;;2.93;;
17207;SDS011;8720;48.488;9.202;2023-04-15T00:05:49;3.43;;;2.80;;
17207;SDS011;8720;48.488;9.202;2023-04-15T00:08:16;4.20;;;3.10;;
17207;SDS011;8720;48.488;9.202;2023-04-15T00:10:43;6.53;;;3.83;;
17207;SDS011;8720;48.488;9.202;2023-04-15T00:13:11;5.53;;;3.33;;
17207;SDS011;8720;48.488;9.202;2023-04-15T00:15:40;5.77;;;4.67;;
17207;SDS011;8720;48.488;9.202;2023-04-15T00:18:08;6.93;;;4.70;;
17207;SDS011;8720;48.488;9.202;2023-04-15T00:20:35;8.00;;;4.87;;
17207;SDS011;8720;48.488;9.202;2023-04-15T00:23:03;9.80;;;5.80;;
17207;SDS011;8720;48.488;9.202;2023-04-15T00:25:30;7.43;;;5.50;;
17207;SDS011;8720;48.488;9.202;2023-04-15T00:27:57;5.47;;;4.70;;
17207;SDS011;8720;48.488;9.202;2023-04-15T00:30:24;7.37;;;5.20;;
17207;SDS011;8720;48.488;9.202;2023-04-15T00:32:53;6.87;;;5.20;;
17207;SDS011;8720;48.488;9.202;2023-04-15T00:35:21;7.20;;;5.17;;
17207;SDS011;8720;48.488;9.202;2023-04-15T00:37:49;8.17;;;5.57;;
17207;SDS011;8720;48.488;9.202;2023-04-15T00:40:17;7.67;;;4.77;;
17207;SDS011;8720;48.488;9.202;2023-04-15T00:42:48;6.60;;;4.60;;
17207;SDS011;8720;48.488;9.202;2023-04-15T00:45:16;6.80;;;4.67;;
17207;SDS011;8720;48.488;9.202;2023-04-15T00:47:44;5.60;;;4.40;;
17207;SDS011;8720;48.488;9.202;2023-04-15T00:50:13;5.50;;;4.47;;
17207;SDS011;8720;48.488;9.202;2023-04-15T00:52:40;7.73;;;4.80;;
17207;SDS011;8720;48.488;9.202;2023-04-15T00:55:07;6.00;;;4.20;;
17207;SDS011;8720;48.488;9.202;2023-04-15T00:57:35;7.83;;;4.90;;
17207;SDS011;8720;48.488;9.202;2023-04-15T01:00:05;6.77;;;4.50;;
17207;SDS011;8720;48.488;9.202;2023-04-15T01:02:35;5.87;;;4.20;;
17207;SDS011;8720;48.488;9.202;2023-04-15T01:05:03;5.30;;;4.30;;
17207;SDS011;8720;48.488;9.202;2023-04-15T01:07:33;6.13;;;4.90;;
17207;SDS011;8720;48.488;9.202;2023-04-15T01:10:01;7.10;;;4.47;;
17207;SDS011;8720;48.488;9.202;2023-04-15T01:12:29;4.70;;;3.70;;
17207;SDS011;8720;48.488;9.202;2023-04-15T01:14:59;4.10;;;3.70;;
17207;SDS011;8720;48.488;9.202;2023-04-15T01:17:27;6.60;;;3.53;;
17207;SDS011;8720;48.488;9.202;2023-04-15T01:19:54;4.77;;;3.87;;
17207;SDS011;8720;48.488;9.202;2023-04-15T01:22:23;5.40;;;4.13;;
17207;SDS011;8720;48.488;9.202;2023-04-15T01:24:56;6.53;;;3.37;;
17207;SDS011;8720;48.488;9.202;2023-04-15T01:27:31;5.77;;;3.80;;
17207;SDS011;8720;48.488;9.202;2023-04-15T01:30:00;7.27;;;4.20;;
17207;SDS011;8720;48.488;9.202;2023-04-15T01:32:30;4.70;;;3.77;;
17207;SDS011;8720;48.488;9.202;2023-04-15T01:34:57;7.50;;;4.20;;
17207;SDS011;8720;48.488;9.202;2023-04-15T01:37:25;7.23;;;4.77;;
17207;SDS011;8720;48.488;9.202;2023-04-15T01:39:53;6.23;;;5.10;;
17207;SDS011;8720;48.488;9.202;2023-04-15T01:42:21;7.23;;;6.27;;
17207;SDS011;8720;48.488;9.202;2023-04-15T01:44:50;11.20;;;6.73;;
17207;SDS011;8720;48.488;9.202;2023-04-15T01:47:18;6.90;;;5.53;;
17207;SDS011;8720;48.488;9.202;2023-04-15T01:49:46;7.57;;;5.40;;
17207;SDS011;8720;48.488;9.202;2023-04-15T01:52:13;7.87;;;5.13;;
17207;SDS011;8720;48.488;9.202;2023-04-15T01:54:41;6.57;;;5.40;;
17207;SDS011;8720;48.488;9.202;2023-04-15T01:57:08;6.63;;;5.37;;
17207;SDS011;8720;48.488;9.202;2023-04-15T01:59:35;7.57;;;5.03;;
17207;SDS011;8720;48.488;9.202;2023-04-15T02:02:04;10.40;;;5.00;;
17207;SDS011;8720;48.488;9.202;2023-04-15T02:04:31;8.47;;;4.53;;
17207;SDS011;8720;48.488;9.202;2023-04-15T02:06:59;6.40;;;4.90;;
17207;SDS011;8720;48.488;9.202;2023-04-15T02:09:27;7.00;;;4.50;;
17207;SDS011;8720;48.488;9.202;2023-04-15T02:11:54;4.50;;;3.97;;
17207;SDS011;8720;48.488;9.202;2023-04-15T02:14:22;6.10;;;4.93;;
17207;SDS011;8720;48.488;9.202;2023-04-15T02:16:50;5.93;;;3.97;;
17207;SDS011;8720;48.488;9.202;2023-04-15T02:19:18;9.00;;;5.43;;
17207;SDS011;8720;48.488;9.202;2023-04-15T02:21:46;8.83;;;5.30;;
17207;SDS011;8720;48.488;9.202;2023-04-15T02:24:16;5.70;;;4.87;;
17207;SDS011;8720;48.488;9.202;2023-04-15T02:26:43;7.50;;;5.23;;
17207;SDS011;8720;48.488;9.202;2023-04-15T02:29:11;5.80;;;4.60;;
17207;SDS011;8720;48.488;9.202;2023-04-15T02:31:39;6.47;;;4.80;;
17207;SDS011;8720;48.488;9.202;2023-04-15T02:34:06;7.40;;;5.00;;
17207;SDS011;8720;48.488;9.202;2023-04-15T02:36:35;5.53;;;4.10;;
17207;SDS011;8720;48.488;9.202;2023-04-15T02:39:04;6.33;;;4.43;;
17207;SDS011;8720;48.488;9.202;2023-04-15T02:41:32;6.57;;;4.50;;
17207;SDS011;8720;48.488;9.202;2023-04-15T02:44:01;5.40;;;3.90;;
17207;SDS011;8720;48.488;9.202;2023-04-15T02:46:29;5.63;;;3.77;;
17207;SDS011;8720;48.488;9.202;2023-04-15T02:48:56;4.90;;;3.70;;
17207;SDS011;8720;48.488;9.202;2023-04-15T02:51:24;5.50;;;4.10;;
17207;SDS011;8720;48.488;9.202;2023-04-15T02:53:53;4.73;;;3.40;;
17207;SDS011;8720;48.488;9.202;2023-04-15T02:56:20;6.50;;;3.57;;
17207;SDS011;8720;48.488;9.202;2023-04-15T02:58:48;5.93;;;4.10;;
17207;SDS011;8720;48.488;9.202;2023-04-15T03:01:15;6.40;;;3.50;;
17207;SDS011;8720;48.488;9.202;2023-04-15T03:03:43;4.33;;;3.60;;
17207;SDS011;8720;48.488;9.202;2023-04-15T03:06:10;3.40;;;2.80;;
17207;SDS011;8720;48.488;9.202;2023-04-15T03:08:38;4.03;;;3.40;;
17207;SDS011;8720;48.488;9.202;2023-04-15T03:11:07;3.63;;;2.97;;
17207;SDS011;8720;48.488;9.202;2023-04-15T03:13:35;4.53;;;3.20;;
17207;SDS011;8720;48.488;9.202;2023-04-15T03:16:12;5.60;;;2.70;;
17207;SDS011;8720;48.488;9.202;2023-04-15T03:18:40;6.83;;;3.13;;
17207;SDS011;8720;48.488;9.202;2023-04-15T03:21:08;5.07;;;3.30;;
17207;SDS011;8720;48.488;9.202;2023-04-15T03:23:37;3.53;;;3.17;;
17207;SDS011;8720;48.488;9.202;2023-04-15T03:26:04;4.80;;;2.87;;
17207;SDS011;8720;48.488;9.202;2023-04-15T03:28:33;5.40;;;3.20;;
17207;SDS011;8720;48.488;9.202;2023-04-15T03:31:01;4.60;;;2.97;;
17207;SDS011;8720;48.488;9.202;2023-04-15T03:33:28;5.40;;;2.77;;
17207;SDS011;8720;48.488;9.202;2023-04-15T03:35:55;3.93;;;2.77;;
17207;SDS011;8720;48.488;9.202;2023-04-15T03:38:22;7.30;;;3.60;;
17207;SDS011;8720;48.488;9.202;2023-04-15T03:40:50;4.73;;;3.50;;
17207;SDS011;8720;48.488;9.202;2023-04-15T03:43:18;3.80;;;3.03;;
17207;SDS011;8720;48.488;9.202;2023-04-15T03:45:46;10.17;;;4.27;;
17207;SDS011;8720;48.488;9.202;2023-04-15T03:48:13;5.63;;;3.70;;
17207;SDS011;8720;48.488;9.202;2023-04-15T03:50:40;6.13;;;3.80;;
17207;SDS011;8720;48.488;9.202;2023-04-15T03:53:11;6.13;;;3.77;;
17207;SDS011;8720;48.488;9.202;2023-04-15T03:55:38;7.60;;;3.77;;
17207;SDS011;8720;48.488;9.202;2023-04-15T03:58:05;7.63;;;3.50;;
17207;SDS011;8720;48.488;9.202;2023-04-15T04:00:38;6.73;;;3.70;;
17207;SDS011;8720;48.488;9.202;2023-04-15T04:03:06;8.70;;;4.20;;
17207;SDS011;8720;48.488;9.202;2023-04-15T04:05:34;7.43;;;4.30;;
17207;SDS011;8720;48.488;9.202;2023-04-15T04:08:03;5.60;;;3.90;;
17207;SDS011;8720;48.488;9.202;2023-04-15T04:10:31;5.37;;;3.63;;
17207;SDS011;8720;48.488;9.202;2023-04-15T04:12:58;6.83;;;4.30;;
17207;SDS011;8720;48.488;9.202;2023-04-15T04:15:25;4.90;;;3.47;;
17207;SDS011;8720;48.488;9.202;2023-04-15T04:17:54;6.07;;;3.50;;
17207;SDS011;8720;48.488;9.202;2023-04-15T04:20:22;7.10;;;3.97;;
17207;SDS011;8720;48.488;9.202;2023-04-15T04:22:49;6.73;;;3.73;;
17207;SDS011;8720;48.488;9.202;2023-04-15T04:25:16;3.70;;;3.30;;
17207;SDS011;8720;48.488;9.202;2023-04-15T04:27:43;7.53;;;3.30;;
17207;SDS011;8720;48.488;9.202;2023-04-15T04:30:11;5.53;;;3.40;;
17207;SDS011;8720;48.488;9.202;2023-04-15T04:32:38;5.93;;;3.60;;
17207;SDS011;8720;48.488;9.202;2023-04-15T04:35:07;6.60;;;3.20;;
17207;SDS011;8720;48.488;9.202;2023-04-15T04:37:35;5.03;;;3.40;;
17207;SDS011;8720;48.488;9.202;2023-04-15T04:40:03;5.40;;;3.77;;
17207;SDS011;8720;48.488;9.202;2023-04-15T04:42:32;4.63;;;3.42;;
17207;SDS011;8720;48.488;9.202;2023-04-15T04:44:59;5.40;;;3.73;;
17207;SDS011;8720;48.488;9.202;2023-04-15T04:47:27;5.30;;;4.10;;
17207;SDS011;8720;48.488;9.202;2023-04-15T04:49:54;5.63;;;3.53;;
17207;SDS011;8720;48.488;9.202;2023-04-15T04:52:22;4.63;;;3.40;;
17207;SDS011;8720;48.488;9.202;2023-04-15T04:54:50;5.73;;;3.97;;
17207;SDS011;8720;48.488;9.202;2023-04-15T04:57:17;6.77;;;4.30;;
17207;SDS011;8720;48.488;9.202;2023-04-15T04:59:44;6.70;;;4.20;;
17207;SDS011;8720;48.488;9.202;2023-04-15T05:02:12;5.93;;;3.80;;
17207;SDS011;8720;48.488;9.202;2023-04-15T05:04:39;9.13;;;4.43;;
17207;SDS011;8720;48.488;9.202;2023-04-15T05:07:09;6.70;;;3.80;;
17207;SDS011;8720;48.488;9.202;2023-04-15T05:09:38;5.20;;;4.23;;
17207;SDS011;8720;48.488;9.202;2023-04-15T05:12:06;7.90;;;4.47;;
17207;SDS011;8720;48.488;9.202;2023-04-15T05:14:39;5.83;;;3.87;;
17207;SDS011;8720;48.488;9.202;2023-04-15T05:17:06;6.03;;;3.73;;
17207;SDS011;8720;48.488;9.202;2023-04-15T05:19:33;6.03;;;4.27;;
17207;SDS011;8720;48.488;9.202;2023-04-15T05:22:01;6.33;;;3.50;;
17207;SDS011;8720;48.488;9.202;2023-04-15T05:24:28;5.73;;;3.93;;
17207;SDS011;8720;48.488;9.202;2023-04-15T05:26:57;6.03;;;3.30;;
17207;SDS011;8720;48.488;9.202;2023-04-15T05:29:26;4.63;;;3.83;;
17207;SDS011;8720;48.488;9.202;2023-04-15T05:31:54;5.03;;;3.93;;
17207;SDS011;8720;48.488;9.202;2023-04-15T05:34:21;6.43;;;4.17;;
17207;SDS011;8720;48.488;9.202;2023-04-15T05:36:49;5.40;;;4.30;;
17207;SDS011;8720;48.488;9.202;2023-04-15T05:39:17;6.20;;;4.53;;
17207;SDS011;8720;48.488;9.202;2023-04-15T05:41:44;5.87;;;4.17;;
17207;SDS011;8720;48.488;9.202;2023-04-15T05:44:13;8.10;;;4.40;;
17207;SDS011;8720;48.488;9.202;2023-04-15T05:46:40;5.60;;;4.20;;
17207;SDS011;8720;48.488;9.202;2023-04-15T05:49:08;5.33;;;4.10;;
17207;SDS011;8720;48.488;9.202;2023-04-15T05:51:35;5.53;;;4.37;;
17207;SDS011;8720;48.488;9.202;2023-04-15T05:54:02;5.03;;;3.80;;
17207;SDS011;8720;48.488;9.202;2023-04-15T05:56:29;5.67;;;3.73;;
17207;SDS011;8720;48.488;9.202;2023-04-15T05:58:57;6.43;;;4.10;;
17207;SDS011;8720;48.488;9.202;2023-04-15T06:01:25;5.80;;;3.93;;
17207;SDS011;8720;48.488;9.202;2023-04-15T06:03:53;7.83;;;4.07;;
17207;SDS011;8720;48.488;9.202;2023-04-15T06:06:21;5.10;;;4.27;;
17207;SDS011;8720;48.488;9.202;2023-04-15T06:08:48;6.47;;;4.87;;
17207;SDS011;8720;48.488;9.202;2023-04-15T06:11:15;5.00;;;4.50;;
17207;SDS011;8720;48.488;9.202;2023-04-15T06:13:43;8.10;;;4.70;;
17207;SDS011;8720;48.488;9.202;2023-04-15T06:16:10;4.70;;;4.20;;
17207;SDS011;8720;48.488;9.202;2023-04-15T06:18:39;8.60;;;4.33;;
17207;SDS011;8720;48.488;9.202;2023-04-15T06:21:06;10.20;;;4.77;;
17207;SDS011;8720;48.488;9.202;2023-04-15T06:23:33;5.10;;;3.63;;
17207;SDS011;8720;48.488;9.202;2023-04-15T06:26:01;6.00;;;4.37;;
17207;SDS011;8720;48.488;9.202;2023-04-15T06:28:29;7.27;;;4.83;;
17207;SDS011;8720;48.488;9.202;2023-04-15T06:30:56;8.17;;;5.10;;
17207;SDS011;8720;48.488;9.202;2023-04-15T06:33:24;8.57;;;5.63;;
17207;SDS011;8720;48.488;9.202;2023-04-15T06:35:52;4.90;;;4.13;;
17207;SDS011;8720;48.488;9.202;2023-04-15T06:38:19;7.77;;;4.97;;
17207;SDS011;8720;48.488;9.202;2023-04-15T06:40:47;9.60;;;4.97;;
17207;SDS011;8720;48.488;9.202;2023-04-15T06:43:14;5.50;;;4.50;;
17207;SDS011;8720;48.488;9.202;2023-04-15T06:45:41;6.70;;;4.73;;
17207;SDS011;8720;48.488;9.202;2023-04-15T06:48:09;5.80;;;4.73;;
17207;SDS011;8720;48.488;9.202;2023-04-15T06:50:36;6.77;;;5.27;;
17207;SDS011;8720;48.488;9.202;2023-04-15T06:53:05;7.67;;;5.30;;
17207;SDS011;8720;48.488;9.202;2023-04-15T06:55:32;7.73;;;4.70;;
17207;SDS011;8720;48.488;9.202;2023-04-15T06:57:59;5.73;;;4.10;;
17207;SDS011;8720;48.488;9.202;2023-04-15T07:00:27;7.60;;;4.80;;
17207;SDS011;8720;48.488;9.202;2023-04-15T07:02:54;4.80;;;4.10;;
17207;SDS011;8720;48.488;9.202;2023-04-15T07:05:22;6.30;;;5.10;;
17207;SDS011;8720;48.488;9.202;2023-04-15T07:07:49;5.73;;;4.37;;
17207;SDS011;8720;48.488;9.202;2023-04-15T07:10:18;8.20;;;4.57;;
17207;SDS011;8720;48.488;9.202;2023-04-15T07:12:47;7.93;;;4.43;;
17207;SDS011;8720;48.488;9.202;2023-04-15T07:15:15;4.53;;;3.70;;
17207;SDS011;8720;48.488;9.202;2023-04-15T07:17:42;4.97;;;4.17;;
17207;SDS011;8720;48.488;9.202;2023-04-15T07:20:10;6.40;;;4.50;;
17207;SDS011;8720;48.488;9.202;2023-04-15T07:22:38;5.80;;;4.23;;
17207;SDS011;8720;48.488;9.202;2023-04-15T07:25:06;5.00;;;4.00;;
17207;SDS011;8720;48.488;9.202;2023-04-15T07:27:36;7.53;;;3.60;;
17207;SDS011;8720;48.488;9.202;2023-04-15T07:30:03;5.23;;;4.00;;
17207;SDS011;8720;48.488;9.202;2023-04-15T07:32:33;5.00;;;3.80;;
17207;SDS011;8720;48.488;9.202;2023-04-15T07:35:00;5.27;;;3.80;;
17207;SDS011;8720;48.488;9.202;2023-04-15T07:37:28;5.43;;;3.60;;
17207;SDS011;8720;48.488;9.202;2023-04-15T07:39:55;5.33;;;4.20;;
17207;SDS011;8720;48.488;9.202;2023-04-15T07:42:22;5.20;;;4.30;;
17207;SDS011;8720;48.488;9.202;2023-04-15T07:44:51;6.03;;;4.40;;
17207;SDS011;8720;48.488;9.202;2023-04-15T07:47:18;5.87;;;4.10;;
17207;SDS011;8720;48.488;9.202;2023-04-15T07:49:46;5.97;;;3.50;;
17207;SDS011;8720;48.488;9.202;2023-04-15T07:52:13;5.13;;;3.57;;
17207;SDS011;8720;48.488;9.202;2023-04-15T07:54:40;6.33;;;3.87;;
17207;SDS011;8720;48.488;9.202;2023-04-15T07:57:08;6.60;;;4.03;;
17207;SDS011;8720;48.488;9.202;2023-04-15T07:59:35;4.10;;;3.47;;
17207;SDS011;8720;48.488;9.202;2023-04-15T08:02:04;4.80;;;3.33;;
17207;SDS011;8720;48.488;9.202;2023-04-15T08:04:31;4.00;;;3.27;;
17207;SDS011;8720;48.488;9.202;2023-04-15T08:06:58;3.77;;;3.20;;
17207;SDS011;8720;48.488;9.202;2023-04-15T08:09:25;4.13;;;3.40;;
17207;SDS011;8720;48.488;9.202;2023-04-15T08:11:53;5.40;;;3.23;;
17207;SDS011;8720;48.488;9.202;2023-04-15T08:14:20;7.07;;;3.97;;
17207;SDS011;8720;48.488;9.202;2023-04-15T08:16:48;6.00;;;4.23;;
17207;SDS011;8720;48.488;9.202;2023-04-15T08:19:16;4.50;;;4.10;;
17207;SDS011;8720;48.488;9.202;2023-04-15T08:21:43;3.97;;;3.57;;
17207;SDS011;8720;48.488;9.202;2023-04-15T08:24:11;4.47;;;3.23;;
17207;SDS011;8720;48.488;9.202;2023-04-15T08:26:38;3.00;;;2.70;;
17207;SDS011;8720;48.488;9.202;2023-04-15T08:29:06;6.83;;;3.47;;
17207;SDS011;8720;48.488;9.202;2023-04-15T08:31:33;7.20;;;4.10;;
17207;SDS011;8720;48.488;9.202;2023-04-15T08:34:00;4.20;;;3.00;;
17207;SDS011;8720;48.488;9.202;2023-04-15T08:36:29;3.23;;;2.73;;
17207;SDS011;8720;48.488;9.202;2023-04-15T08:38:57;5.50;;;3.07;;
17207;SDS011;8720;48.488;9.202;2023-04-15T08:41:27;4.40;;;4.00;;
17207;SDS011;8720;48.488;9.202;2023-04-15T08:44:05;3.43;;;3.13;;
17207;SDS011;8720;48.488;9.202;2023-04-15T08:46:32;4.30;;;3.40;;
17207;SDS011;8720;48.488;9.202;2023-04-15T08:49:01;8.50;;;3.80;;
17207;SDS011;8720;48.488;9.202;2023-04-15T08:51:32;4.37;;;3.70;;
17207;SDS011;8720;48.488;9.202;2023-04-15T08:54:00;5.30;;;3.40;;
17207;SDS011;8720;48.488;9.202;2023-04-15T08:56:30;4.60;;;3.27;;
17207;SDS011;8720;48.488;9.202;2023-04-15T08:58:58;7.20;;;2.97;;
17207;SDS011;8720;48.488;9.202;2023-04-15T09:01:25;4.23;;;3.23;;
17207;SDS011;8720;48.488;9.202;2023-04-15T09:03:53;3.40;;;2.63;;
17207;SDS011;8720;48.488;9.202;2023-04-15T09:06:22;3.70;;;3.07;;
17207;SDS011;8720;48.488;9.202;2023-04-15T09:08:50;5.70;;;3.77;;
17207;SDS011;8720;48.488;9.202;2023-04-15T09:11:18;6.47;;;3.50;;
17207;SDS011;8720;48.488;9.202;2023-04-15T09:13:48;3.33;;;3.03;;
17207;SDS011;8720;48.488;9.202;2023-04-15T09:16:16;6.57;;;3.17;;
17207;SDS011;8720;48.488;9.202;2023-04-15T09:18:44;5.63;;;3.47;;
17207;SDS011;8720;48.488;9.202;2023-04-15T09:21:12;4.90;;;3.20;;
17207;SDS011;8720;48.488;9.202;2023-04-15T09:23:52;4.70;;;3.50;;
17207;SDS011;8720;48.488;9.202;2023-04-15T09:26:29;12.33;;;3.63;;
17207;SDS011;8720;48.488;9.202;2023-04-15T09:29:03;3.40;;;3.10;;
17207;SDS011;8720;48.488;9.202;2023-04-15T09:31:34;4.80;;;3.60;;
17207;SDS011;8720;48.488;9.202;2023-04-15T09:34:02;7.07;;;3.30;;
17207;SDS011;8720;48.488;9.202;2023-04-15T09:36:32;3.50;;;2.60;;
17207;SDS011;8720;48.488;9.202;2023-04-15T09:39:20;3.90;;;2.57;;
17207;SDS011;8720;48.488;9.202;2023-04-15T09:42:02;3.20;;;2.80;;
17207;SDS011;8720;48.488;9.202;2023-04-15T09:44:32;6.60;;;2.90;;
17207;SDS011;8720;48.488;9.202;2023-04-15T09:46:59;3.90;;;2.60;;
17207;SDS011;8720;48.488;9.202;2023-04-15T09:49:27;5.47;;;3.27;;
17207;SDS011;8720;48.488;9.202;2023-04-15T09:51:57;3.87;;;2.73;;
17207;SDS011;8720;48.488;9.202;2023-04-15T09:54:33;4.67;;;3.10;;
17207;SDS011;8720;48.488;9.202;2023-04-15T09:57:05;4.10;;;2.60;;
17207;SDS011;8720;48.488;9.202;2023-04-15T09:59:34;3.00;;;2.70;;
17207;SDS011;8720;48.488;9.202;2023-04-15T10:02:02;5.57;;;3.23;;
17207;SDS011;8720;48.488;9.202;2023-04-15T10:04:33;5.77;;;2.80;;
17207;SDS011;8720;48.488;9.202;2023-04-15T10:07:04;4.90;;;2.43;;
17207;SDS011;8720;48.488;9.202;2023-04-15T10:09:35;3.57;;;2.30;;
17207;SDS011;8720;48.488;9.202;2023-04-15T10:12:04;3.00;;;1.93;;
17207;SDS011;8720;48.488;9.202;2023-04-15T10:14:32;3.30;;;2.20;;
17207;SDS011;8720;48.488;9.202;2023-04-15T10:17:03;2.83;;;2.07;;
17207;SDS011;8720;48.488;9.202;2023-04-15T10:19:33;3.00;;;1.90;;
17207;SDS011;8720;48.488;9.202;2023-04-15T10:22:03;2.33;;;2.10;;
17207;SDS011;8720;48.488;9.202;2023-04-15T10:24:31;3.73;;;1.90;;
17207;SDS011;8720;48.488;9.202;2023-04-15T10:27:00;3.10;;;2.17;;
17207;SDS011;8720;48.488;9.202;2023-04-15T10:29:29;3.17;;;2.70;;
17207;SDS011;8720;48.488;9.202;2023-04-15T10:31:57;3.40;;;2.50;;
17207;SDS011;8720;48.488;9.202;2023-04-15T10:34:25;3.70;;;2.27;;
17207;SDS011;8720;48.488;9.202;2023-04-15T10:36:55;3.60;;;2.47;;
17207;SDS011;8720;48.488;9.202;2023-04-15T10:39:40;3.90;;;2.40;;
17207;SDS011;8720;48.488;9.202;2023-04-15T10:42:11;3.57;;;2.30;;
17207;SDS011;8720;48.488;9.202;2023-04-15T10:44:41;7.07;;;2.30;;
17207;SDS011;8720;48.488;9.202;2023-04-15T10:47:14;4.37;;;2.30;;
17207;SDS011;8720;48.488;9.202;2023-04-15T10:49:45;2.67;;;2.10;;
17207;SDS011;8720;48.488;9.202;2023-04-15T10:52:14;4.03;;;2.07;;
17207;SDS011;8720;48.488;9.202;2023-04-15T10:54:47;3.33;;;2.20;;
17207;SDS011;8720;48.488;9.202;2023-04-15T10:57:21;3.80;;;2.30;;
17207;SDS011;8720;48.488;9.202;2023-04-15T10:59:59;3.47;;;2.07;;
17207;SDS011;8720;48.488;9.202;2023-04-15T11:02:40;2.70;;;1.97;;
17207;SDS011;8720;48.488;9.202;2023-04-15T11:05:10;4.37;;;2.30;;
17207;SDS011;8720;48.488;9.202;2023-04-15T11:07:39;3.17;;;2.17;;
17207;SDS011;8720;48.488;9.202;2023-04-15T11:13:24;6.00;;;2.40;;
17207;SDS011;8720;48.488;9.202;2023-04-15T11:15:57;6.10;;;2.87;;
17207;SDS011;8720;48.488;9.202;2023-04-15T11:18:27;3.63;;;2.33;;
17207;SDS011;8720;48.488;9.202;2023-04-15T11:20:58;8.47;;;1.93;;
17207;SDS011;8720;48.488;9.202;2023-04-15T11:23:29;3.00;;;2.30;;
17207;SDS011;8720;48.488;9.202;2023-04-15T11:26:03;4.73;;;2.20;;
17207;SDS011;8720;48.488;9.202;2023-04-15T11:28:35;3.83;;;2.97;;
17207;SDS011;8720;48.488;9.202;2023-04-15T11:31:09;5.40;;;2.43;;
17207;SDS011;8720;48.488;9.202;2023-04-15T11:33:43;3.60;;;2.50;;
17207;SDS011;8720;48.488;9.202;2023-04-15T11:36:13;5.80;;;2.73;;
17207;SDS011;8720;48.488;9.202;2023-04-15T11:38:43;3.90;;;2.07;;
17207;SDS011;8720;48.488;9.202;2023-04-15T11:41:13;4.17;;;2.27;;
17207;SDS011;8720;48.488;9.202;2023-04-15T11:43:42;3.10;;;2.20;;
17207;SDS011;8720;48.488;9.202;2023-04-15T11:46:09;2.70;;;2.30;;
17207;SDS011;8720;48.488;9.202;2023-04-15T11:48:40;3.33;;;2.50;;
17207;SDS011;8720;48.488;9.202;2023-04-15T11:51:09;3.70;;;2.40;;
17207;SDS011;8720;48.488;9.202;2023-04-15T11:53:38;5.67;;;3.40;;
17207;SDS011;8720;48.488;9.202;2023-04-15T11:56:09;5.20;;;2.60;;
17207;SDS011;8720;48.488;9.202;2023-04-15T11:58:44;3.43;;;2.40;;
17207;SDS011;8720;48.488;9.202;2023-04-15T12:01:11;3.57;;;2.40;;
17207;SDS011;8720;48.488;9.202;2023-04-15T12:03:39;5.80;;;2.33;;
17207;SDS011;8720;48.488;9.202;2023-04-15T12:06:13;2.73;;;1.90;;
17207;SDS011;8720;48.488;9.202;2023-04-15T12:08:46;2.10;;;1.90;;
17207;SDS011;8720;48.488;9.202;2023-04-15T12:11:30;5.03;;;2.77;;
17207;SDS011;8720;48.488;9.202;2023-04-15T12:14:12;3.07;;;2.20;;
17207;SDS011;8720;48.488;9.202;2023-04-15T12:16:47;3.13;;;1.90;;
17207;SDS011;8720;48.488;9.202;2023-04-15T12:19:17;3.53;;;2.43;;
17207;SDS011;8720;48.488;9.202;2023-04-15T12:21:49;3.43;;;2.40;;
17207;SDS011;8720;48.488;9.202;2023-04-15T12:24:22;5.93;;;2.20;;
17207;SDS011;8720;48.488;9.202;2023-04-15T12:26:51;3.07;;;1.83;;
17207;SDS011;8720;48.488;9.202;2023-04-15T12:29:25;3.00;;;2.20;;
17207;SDS011;8720;48.488;9.202;2023-04-15T12:31:57;4.00;;;2.20;;
17207;SDS011;8720;48.488;9.202;2023-04-15T12:34:31;5.00;;;2.30;;
17207;SDS011;8720;48.488;9.202;2023-04-15T12:37:01;2.97;;;2.17;;
17207;SDS011;8720;48.488;9.202;2023-04-15T12:39:33;5.30;;;2.43;;
17207;SDS011;8720;48.488;9.202;2023-04-15T12:42:03;2.87;;;2.23;;
17207;SDS011;8720;48.488;9.202;2023-04-15T12:44:32;2.87;;;2.50;;
17207;SDS011;8720;48.488;9.202;2023-04-15T12:47:00;3.70;;;2.27;;
17207;SDS011;8720;48.488;9.202;2023-04-15T12:49:28;2.83;;;2.57;;
17207;SDS011;8720;48.488;9.202;2023-04-15T12:51:58;3.30;;;2.10;;
17207;SDS011;8720;48.488;9.202;2023-04-15T12:54:27;3.00;;;2.47;;
17207;SDS011;8720;48.488;9.202;2023-04-15T12:56:56;4.60;;;2.70;;
17207;SDS011;8720;48.488;9.202;2023-04-15T12:59:25;2.83;;;2.27;;
17207;SDS011;8720;48.488;9.202;2023-04-15T13:01:54;4.40;;;2.60;;
17207;SDS011;8720;48.488;9.202;2023-04-15T13:04:21;3.17;;;2.63;;
17207;SDS011;8720;48.488;9.202;2023-04-15T13:06:48;4.03;;;2.37;;
17207;SDS011;8720;48.488;9.202;2023-04-15T13:09:16;3.73;;;2.43;;
17207;SDS011;8720;48.488;9.202;2023-04-15T13:11:43;2.07;;;1.50;;
17207;SDS011;8720;48.488;9.202;2023-04-15T13:14:10;2.87;;;2.07;;
17207;SDS011;8720;48.488;9.202;2023-04-15T13:16:38;2.00;;;1.57;;
17207;SDS011;8720;48.488;9.202;2023-04-15T13:19:06;3.93;;;2.30;;
17207;SDS011;8720;48.488;9.202;2023-04-15T13:21:34;2.77;;;2.00;;
17207;SDS011;8720;48.488;9.202;2023-04-15T13:24:01;2.50;;;2.00;;
17207;SDS011;8720;48.488;9.202;2023-04-15T13:26:31;4.13;;;2.77;;
17207;SDS011;8720;48.488;9.202;2023-04-15T13:28:58;4.67;;;2.80;;
17207;SDS011;8720;48.488;9.202;2023-04-15T13:31:26;4.73;;;3.13;;
17207;SDS011;8720;48.488;9.202;2023-04-15T13:33:53;3.90;;;3.00;;
17207;SDS011;8720;48.488;9.202;2023-04-15T13:36:23;4.03;;;2.93;;
17207;SDS011;8720;48.488;9.202;2023-04-15T13:38:51;5.67;;;3.60;;
17207;SDS011;8720;48.488;9.202;2023-04-15T13:41:18;4.10;;;2.80;;
17207;SDS011;8720;48.488;9.202;2023-04-15T13:43:46;3.37;;;3.07;;
17207;SDS011;8720;48.488;9.202;2023-04-15T13:46:13;3.20;;;2.80;;
17207;SDS011;8720;48.488;9.202;2023-04-15T13:48:40;3.07;;;2.77;;
17207;SDS011;8720;48.488;9.202;2023-04-15T13:51:08;5.07;;;3.60;;
17207;SDS011;8720;48.488;9.202;2023-04-15T13:53:36;5.67;;;3.33;;
17207;SDS011;8720;48.488;9.202;2023-04-15T13:56:04;3.57;;;2.83;;
17207;SDS011;8720;48.488;9.202;2023-04-15T13:58:32;5.50;;;2.90;;
17207;SDS011;8720;48.488;9.202;2023-04-15T14:00:59;4.20;;;3.80;;
17207;SDS011;8720;48.488;9.202;2023-04-15T14:03:26;6.23;;;3.17;;
17207;SDS011;8720;48.488;9.202;2023-04-15T14:05:54;3.40;;;2.73;;
17207;SDS011;8720;48.488;9.202;2023-04-15T14:08:22;5.60;;;3.37;;
17207;SDS011;8720;48.488;9.202;2023-04-15T14:10:51;3.80;;;2.60;;
17207;SDS011;8720;48.488;9.202;2023-04-15T14:13:19;3.33;;;2.73;;
17207;SDS011;8720;48.488;9.202;2023-04-15T14:15:46;4.43;;;3.20;;
17207;SDS011;8720;48.488;9.202;2023-04-15T14:18:13;4.17;;;2.40;;
17207;SDS011;8720;48.488;9.202;2023-04-15T14:20:41;4.43;;;2.73;;
17207;SDS011;8720;48.488;9.202;2023-04-15T14:23:08;2.63;;;2.00;;
17207;SDS011;8720;48.488;9.202;2023-04-15T14:25:35;3.17;;;2.37;;
17207;SDS011;8720;48.488;9.202;2023-04-15T14:28:05;5.53;;;2.57;;
17207;SDS011;8720;48.488;9.202;2023-04-15T14:30:32;5.43;;;3.13;;
17207;SDS011;8720;48.488;9.202;2023-04-15T14:32:59;4.57;;;3.03;;
17207;SDS011;8720;48.488;9.202;2023-04-15T14:35:27;3.43;;;3.13;;
17207;SDS011;8720;48.488;9.202;2023-04-15T14:37:55;3.80;;;2.87;;
17207;SDS011;8720;48.488;9.202;2023-04-15T14:40:23;3.20;;;2.90;;
17207;SDS011;8720;48.488;9.202;2023-04-15T14:42:50;3.27;;;2.73;;
17207;SDS011;8720;48.488;9.202;2023-04-15T14:45:19;2.60;;;2.40;;
17207;SDS011;8720;48.488;9.202;2023-04-15T14:47:46;3.10;;;2.53;;
17207;SDS011;8720;48.488;9.202;2023-04-15T14:50:14;4.70;;;2.80;;
17207;SDS011;8720;48.488;9.202;2023-04-15T14:52:42;3.27;;;2.97;;
17207;SDS011;8720;48.488;9.202;2023-04-15T14:55:10;5.43;;;3.07;;
17207;SDS011;8720;48.488;9.202;2023-04-15T14:57:39;2.80;;;2.50;;
17207;SDS011;8720;48.488;9.202;2023-04-15T15:00:08;3.27;;;2.40;;
17207;SDS011;8720;48.488;9.202;2023-04-15T15:02:38;3.70;;;2.63;;
17207;SDS011;8720;48.488;9.202;2023-04-15T15:05:06;3.83;;;3.00;;
17207;SDS011;8720;48.488;9.202;2023-04-15T15:07:36;2.50;;;2.30;;
17207;SDS011;8720;48.488;9.202;2023-04-15T15:10:05;2.57;;;2.37;;
17207;SDS011;8720;48.488;9.202;2023-04-15T15:12:33;2.60;;;2.10;;